createdAt,value
2023-03-08T00:01:44.569Z,99947.41
2023-03-08T00:04:15.753Z,99914.44
2023-03-08T00:06:59.372Z,99918.78
2023-03-08T00:09:44.172Z,99916.25
2023-03-08T00:12:20.835Z,99915.41
2023-03-08T00:15:10.319Z,99917.28
2023-03-08T00:18:03.873Z,99907.72
2023-03-08T00:20:45.519Z,99948.53
2023-03-08T00:23:21.316Z,99944.25
2023-03-08T00:26:29.610Z,99893.16
2023-03-08T00:28:58.708Z,99899.16
2023-03-08T00:31:38.049Z,99919.56
2023-03-08T00:34:13.236Z,99938.38
2023-03-08T00:36:50.831Z,99901.94
2023-03-08T00:39:30.468Z,99900.28
2023-03-08T00:42:18.376Z,99921.72
2023-03-08T00:44:59.691Z,99923.94
2023-03-08T00:47:36.917Z,99932.38
2023-03-08T00:50:10.672Z,99902.06
2023-03-08T00:52:49.498Z,99932.78
2023-03-08T00:55:23.321Z,99893.31
2023-03-08T00:58:02.356Z,99890.91
2023-03-08T01:00:39.982Z,99919.19
2023-03-08T01:03:31.711Z,99936.03
2023-03-08T01:06:27.209Z,99904.09
2023-03-08T01:09:00.106Z,99893.81
2023-03-08T01:11:47.709Z,99909.25
2023-03-08T01:14:16.547Z,99932.94
2023-03-08T01:16:56.246Z,99905.75
2023-03-08T01:19:23.918Z,99912.88
2023-03-08T01:22:07.209Z,99894.06
2023-03-08T01:24:59.282Z,99892.56
2023-03-08T01:27:49.720Z,99908.78
2023-03-08T01:30:26.641Z,99892.66
2023-03-08T01:33:09.999Z,99893.38
2023-03-08T01:36:01.550Z,99881.22
2023-03-08T01:38:47.412Z,99876.91
2023-03-08T01:41:47.524Z,99909.00
2023-03-08T01:44:30.885Z,99868.25
2023-03-08T01:47:18.651Z,99852.66
2023-03-08T01:49:54.571Z,99854.19
2023-03-08T01:52:45.168Z,99894.94
2023-03-08T01:55:22.089Z,99877.19
2023-03-08T01:58:06.238Z,99846.66
2023-03-08T02:00:42.552Z,99853.34
2023-03-08T02:03:21.424Z,99862.59
2023-03-08T02:06:07.685Z,99844.81
2023-03-08T02:08:43.427Z,99876.16
2023-03-08T02:11:16.014Z,99863.44
2023-03-08T02:13:53.720Z,99850.69
2023-03-08T02:16:40.489Z,99898.31
2023-03-08T02:19:30.709Z,99892.97
2023-03-08T02:22:10.649Z,99888.44
2023-03-08T02:24:49.481Z,99860.25
2023-03-08T02:27:38.725Z,99882.13
2023-03-08T02:30:14.281Z,99863.53
2023-03-08T02:32:45.547Z,99848.19
2023-03-08T02:35:34.478Z,99875.31
2023-03-08T02:38:04.069Z,99848.13
2023-03-08T02:40:38.313Z,99823.28
2023-03-08T02:43:23.060Z,99855.38
2023-03-08T02:46:11.537Z,99800.03
2023-03-08T02:48:53.613Z,99804.38
2023-03-08T02:51:27.356Z,99822.34
2023-03-08T02:54:09.020Z,99840.91
2023-03-08T02:56:40.071Z,99837.59
2023-03-08T02:59:26.498Z,99838.59
2023-03-08T03:01:58.749Z,99818.41
2023-03-08T03:04:37.320Z,99847.34
2023-03-08T03:07:08.793Z,99814.38
2023-03-08T03:09:49.754Z,99798.94
2023-03-08T03:12:19.875Z,99798.94
2023-03-08T03:14:57.604Z,99818.63
2023-03-08T03:17:26.768Z,99794.84
2023-03-08T03:20:05.729Z,99803.38
2023-03-08T03:22:35.365Z,99813.47
2023-03-08T03:25:34.251Z,99799.22
2023-03-08T03:28:23.005Z,99821.34
2023-03-08T03:33:40.135Z,99808.69
2023-03-08T03:36:12.910Z,99802.75
2023-03-08T03:38:47.279Z,99816.38
2023-03-08T03:41:31.129Z,99845.38
2023-03-08T03:44:01.906Z,99798.78
2023-03-08T03:46:36.347Z,99827.84
2023-03-08T03:49:04.098Z,99816.22
2023-03-08T03:51:40.351Z,99819.66
2023-03-08T03:54:23.152Z,99856.88
2023-03-08T03:56:56.610Z,99850.75
2023-03-08T03:59:33.139Z,99830.47
2023-03-08T04:05:07.837Z,99853.28
2023-03-08T04:07:52.157Z,99807.53
2023-03-08T04:10:36.403Z,99809.28
2023-03-08T04:13:11.777Z,99853.41
2023-03-08T04:15:49.434Z,99805.00
2023-03-08T04:18:20.713Z,99804.84
2023-03-08T04:21:07.093Z,99838.66
2023-03-08T04:23:39.401Z,99808.72
2023-03-08T04:26:32.237Z,99795.63
2023-03-08T04:29:06.700Z,99767.41
2023-03-08T04:31:45.810Z,99768.56
2023-03-08T04:34:19.789Z,99794.00
2023-03-08T04:36:56.161Z,99770.25
2023-03-08T04:39:30.978Z,99762.56
2023-03-08T04:42:12.242Z,99784.78
2023-03-08T04:44:47.285Z,99764.28
2023-03-08T04:47:21.512Z,99770.06
2023-03-08T04:49:55.181Z,99753.75
2023-03-08T04:52:31.280Z,99760.47
2023-03-08T04:55:06.098Z,99759.97
2023-03-08T04:57:53.398Z,99762.25
2023-03-08T05:00:25.376Z,99739.19
2023-03-08T05:03:02.493Z,99751.81
2023-03-08T05:05:39.926Z,99731.31
2023-03-08T05:08:22.374Z,99726.69
2023-03-08T05:11:15.217Z,99724.22
2023-03-08T05:13:42.725Z,99719.84
2023-03-08T05:16:27.901Z,99716.34
2023-03-08T05:21:54.626Z,99704.16
2023-03-08T05:27:30.601Z,99710.72
2023-03-08T05:30:15.487Z,99694.91
2023-03-08T05:32:54.254Z,99703.50
2023-03-08T05:35:31.219Z,99744.88
2023-03-08T05:38:09.444Z,99703.81
2023-03-08T05:40:55.870Z,99691.06
2023-03-08T05:43:36.558Z,99686.66
2023-03-08T05:46:17.090Z,99689.22
2023-03-08T05:48:53.227Z,99705.28
2023-03-08T05:51:28.647Z,99687.31
2023-03-08T05:54:05.600Z,99681.31
2023-03-08T05:56:33.251Z,99690.38
2023-03-08T05:59:14.981Z,99670.78
2023-03-08T06:02:00.159Z,99662.00
2023-03-08T06:04:44.587Z,99705.34
2023-03-08T06:07:14.846Z,99646.41
2023-03-08T06:09:52.492Z,99660.41
2023-03-08T06:12:22.326Z,99634.56
2023-03-08T06:15:02.033Z,99639.66
2023-03-08T06:17:33.637Z,99664.78
2023-03-08T06:20:19.396Z,99626.97
2023-03-08T06:23:06.983Z,99642.09
2023-03-08T06:25:44.966Z,99620.88
2023-03-08T06:28:35.275Z,99626.66
2023-03-08T06:31:26.995Z,99607.59
2023-03-08T06:33:57.284Z,99641.16
2023-03-08T06:36:36.169Z,99614.13
2023-03-08T06:39:14.560Z,99629.25
2023-03-08T06:41:46.705Z,99603.75
2023-03-08T06:44:26.321Z,99626.47
2023-03-08T06:47:03.739Z,99597.59
2023-03-08T06:49:37.110Z,99600.88
2023-03-08T06:52:13.451Z,99607.75
2023-03-08T06:54:48.346Z,99628.84
2023-03-08T06:57:25.315Z,99611.81
2023-03-08T07:00:02.316Z,99612.50
2023-03-08T07:02:36.291Z,99631.81
2023-03-08T07:05:16.061Z,99628.28
2023-03-08T07:07:52.900Z,99627.44
2023-03-08T07:10:30.829Z,99598.31
2023-03-08T07:13:05.116Z,99598.94
2023-03-08T07:15:51.208Z,99620.09
2023-03-08T07:18:21.561Z,99605.75
2023-03-08T07:21:04.071Z,99644.63
2023-03-08T07:23:34.452Z,99607.22
2023-03-08T07:26:21.415Z,99615.50
2023-03-08T07:29:06.867Z,99637.38
2023-03-08T07:31:52.414Z,99616.94
2023-03-08T07:34:19.357Z,99591.59
2023-03-08T07:36:55.140Z,99607.03
2023-03-08T07:39:30.505Z,99610.19
2023-03-08T07:42:05.628Z,99591.28
2023-03-08T07:44:33.049Z,99594.59
2023-03-08T07:47:09.276Z,99600.63
2023-03-08T07:49:43.024Z,99596.25
2023-03-08T07:52:17.359Z,99606.06
2023-03-08T07:54:52.387Z,99601.69
2023-03-08T07:57:43.455Z,99595.84
2023-03-08T08:00:12.361Z,99607.19
2023-03-08T08:02:48.149Z,99587.16
2023-03-08T08:05:21.072Z,99601.28
2023-03-08T08:08:03.350Z,99609.13
2023-03-08T08:10:40.329Z,99593.41
2023-03-08T08:13:21.676Z,99593.84
2023-03-08T08:16:14.207Z,99600.91
2023-03-08T08:18:50.656Z,99586.81
2023-03-08T08:21:30.099Z,99574.91
2023-03-08T08:56:28.536Z,99563.88
2023-03-08T09:03:22.512Z,99547.78
2023-03-08T09:06:13.291Z,99543.03
2023-03-08T09:08:48.607Z,99541.50
2023-03-08T09:11:28.110Z,99536.25
2023-03-08T09:13:58.106Z,99531.69
2023-03-08T09:16:36.438Z,99520.28
2023-03-08T09:19:17.885Z,99513.72
2023-03-08T09:21:55.117Z,99524.47
2023-03-08T09:24:41.792Z,99526.28
2023-03-08T09:27:29.786Z,99506.22
2023-03-08T09:32:53.969Z,99505.28
2023-03-08T09:35:32.601Z,99510.72
2023-03-08T09:38:22.988Z,99502.34
2023-03-08T09:41:24.560Z,99505.16
2023-03-08T09:44:33.709Z,99530.22
2023-03-08T09:47:33.174Z,99521.81
2023-03-08T09:50:36.656Z,99527.81
2023-03-08T09:56:49.020Z,99490.59
2023-03-08T09:59:49.903Z,99487.69
2023-03-08T10:03:14.360Z,99477.25
2023-03-08T10:14:16.549Z,99492.03
2023-03-08T10:47:41.801Z,99421.38
2023-03-08T11:52:08.517Z,99350.19
2023-03-08T13:06:43.231Z,99337.53
2023-03-08T13:57:27.909Z,99307.00
2023-03-08T14:00:46.284Z,99314.16
2023-03-08T14:26:50.489Z,99333.78
2023-03-08T14:29:44.042Z,99330.78
2023-03-08T14:32:31.501Z,99334.38
2023-03-08T14:41:39.710Z,99293.28
2023-03-08T15:57:04.868Z,99313.50
2023-03-08T16:14:20.131Z,99283.34
2023-03-08T16:17:04.603Z,99295.13
2023-03-08T16:19:44.589Z,99317.16
2023-03-08T16:22:17.979Z,99305.91
2023-03-08T16:24:55.632Z,99265.28
2023-03-08T16:27:29.834Z,99266.22
2023-03-08T16:30:07.520Z,99288.69
2023-03-08T16:32:47.960Z,99271.78
2023-03-08T16:38:17.869Z,99300.38
2023-03-08T16:40:52.726Z,99297.00
2023-03-08T16:44:02.679Z,99294.50
2023-03-08T16:46:45.228Z,99282.41
2023-03-08T16:49:24.865Z,99292.41
2023-03-08T16:52:21.962Z,99273.38
2023-03-08T16:55:06.004Z,99302.28
2023-03-08T16:57:39.269Z,99269.50
2023-03-08T17:00:19.928Z,99276.13
2023-03-08T17:05:48.720Z,99269.91
2023-03-08T17:08:24.178Z,99274.03
2023-03-08T17:11:13.637Z,99285.28
2023-03-08T17:16:40.076Z,99302.06
2023-03-08T17:19:17.679Z,99263.41
2023-03-08T17:21:59.460Z,99256.78
2023-03-08T17:24:40.786Z,99291.16
2023-03-08T17:27:19.479Z,99297.44
2023-03-08T17:32:39.820Z,99247.88
2023-03-08T17:35:18.595Z,99246.31
2023-03-08T17:38:07.536Z,99242.31
2023-03-08T17:40:38.596Z,99277.91
2023-03-08T17:43:13.624Z,99239.97
2023-03-08T17:45:43.988Z,99251.63
2023-03-08T17:48:28.005Z,99263.31
2023-03-08T17:51:22.277Z,99271.91
2023-03-08T17:54:05.864Z,99245.09
2023-03-08T17:56:46.256Z,99237.34
2023-03-08T17:59:24.706Z,99261.94
2023-03-08T18:01:56.860Z,99234.09
2023-03-08T18:04:34.054Z,99249.09
2023-03-08T18:07:06.507Z,99251.53
2023-03-08T18:09:48.242Z,99264.31
2023-03-08T18:31:45.046Z,99249.50
2023-03-08T18:37:08.260Z,99253.06
2023-03-08T18:39:46.714Z,99258.63
2023-03-08T18:42:21.831Z,99278.19
2023-03-08T18:44:49.229Z,99252.94
2023-03-08T18:47:28.153Z,99239.41
2023-03-08T18:50:10.091Z,99251.69
2023-03-08T18:52:46.303Z,99271.56
2023-03-08T18:55:15.611Z,99247.59
2023-03-08T18:57:57.790Z,99249.16
2023-03-08T19:00:36.464Z,99276.06
2023-03-08T19:03:22.424Z,99276.28
2023-03-08T19:05:49.770Z,99249.16
2023-03-08T19:08:17.345Z,99233.22
2023-03-08T19:11:02.111Z,99265.25
2023-03-08T19:13:44.597Z,99250.22
2023-03-08T19:16:34.960Z,99247.16
2023-03-08T19:19:16.312Z,99232.31
2023-03-08T19:21:51.254Z,99234.75
2023-03-08T19:24:27.676Z,99244.09
2023-03-08T19:27:03.669Z,99240.31
2023-03-08T19:29:41.470Z,99236.94
2023-03-08T19:32:21.442Z,99221.59
2023-03-08T19:34:58.267Z,99210.41
2023-03-08T19:37:43.824Z,99217.41
2023-03-08T19:40:35.167Z,99224.25
2023-03-08T19:43:17.360Z,99206.59
2023-03-08T19:46:09.146Z,99213.97
2023-03-08T19:48:58.760Z,99193.38
2023-03-08T19:51:35.890Z,99192.47
2023-03-08T19:54:07.371Z,99192.38
2023-03-08T19:56:45.523Z,99189.63
2023-03-08T19:59:17.908Z,99214.84
2023-03-08T20:01:53.627Z,99192.38
2023-03-08T20:04:30.222Z,99234.59
2023-03-08T20:07:09.898Z,99207.69
2023-03-08T20:09:51.331Z,99214.50
2023-03-08T20:12:31.716Z,99193.97
2023-03-08T20:15:10.553Z,99207.09
2023-03-08T20:17:50.686Z,99182.63
2023-03-08T20:20:33.377Z,99196.25
2023-03-08T20:23:25.418Z,99187.13
2023-03-08T20:26:13.644Z,99189.53
2023-03-08T21:33:03.548Z,99167.94
2023-03-08T21:35:52.329Z,99170.88
2023-03-08T21:38:24.912Z,99189.97
2023-03-08T21:43:48.469Z,99166.34
2023-03-08T21:46:34.085Z,99169.09
2023-03-08T21:49:07.215Z,99175.25
2023-03-08T21:51:45.587Z,99172.75
2023-03-08T21:54:18.882Z,99178.94
2023-03-08T21:56:56.844Z,99188.91
2023-03-08T22:12:29.921Z,99142.81
2023-03-08T22:15:18.042Z,99160.00
2023-03-08T22:25:22.232Z,99160.56
2023-03-08T22:38:42.560Z,99156.94
2023-03-08T22:41:57.669Z,99130.59
2023-03-08T22:44:38.913Z,99132.38
2023-03-08T22:47:30.638Z,99128.19
2023-03-08T22:50:14.554Z,99113.25
2023-03-08T22:52:42.144Z,99123.53
2023-03-08T22:55:12.572Z,99115.69
2023-03-08T22:57:58.545Z,99108.78
2023-03-08T23:00:34.768Z,99108.03
2023-03-08T23:03:27.918Z,99143.41
2023-03-08T23:38:47.868Z,99071.31
2023-03-08T23:41:32.246Z,99120.31
2023-03-08T23:44:18.630Z,99118.94
2023-03-08T23:49:47.785Z,99102.34
